Pavlodar Airport
UASP : now visible

Airfield :











YOU CAN JOIN US ON...

 
LOGIN :

Register | Disclaimer

   EN    FR    IT 

 









Legend :    VFR   Marginal VFR   IFR   Intensive IFR   Very Intensive IFR
Visi :
Ceiling :
>= 8 km
>= 3000ft
5 to 8 km
1000 to 3000 ft
1500m to 5 km
500 to 1000 ft
800 to 1500m
200 to 500 ft
< 800m
< 200 ft
Symbols :   Thunderstorms  Fog  Heavy snow  Heavy precipitations  Wind > 20 kt






- Airport Elevation : 410 ft
- IATA code : PWQ


UASP - Pavlodar

CURRENT METAR :
  • 011230Z 14007MPS 9999 SCT040 14/M08 Q1014 R21/0///60 NOSIG RMK QFE749/0999

EXPIRED METARs :
  • 011200Z 14008MPS 9999 BKN038 15/M07 Q1014 R21/0///60 NOSIG RMK QFE749/0999
  • 011130Z 14009MPS 9999 BKN037 16/M11 Q1014 R21/0///60 NOSIG RMK QFE749/0999
  • 011100Z 15010MPS 9999 BKN041 16/M12 Q1014 R21/0///60 NOSIG RMK QFE749/0999
  • 011030Z 14009MPS 9999 BKN042 16/M09 Q1014 R21/0///60 NOSIG RMK QFE749/0999
  • 011000Z 14010MPS 9999 BKN038 16/M09 Q1014 R21/0///60 NOSIG RMK QFE749/0999

TAF TAF UASP
Valid from the 01 at 12:00 until the 01 at 21:00 UTC


011100Z 0112/0121 15012MPS 9999 SCT020



MET'MAP, your aeronautical weather chart ! - Copyright ORBIFLY December 2007 - Disclaimer

ORBIFLY MET'MAP TEAM :

Programming & Development : Alexandra Zaïnal
Concept & original design : Baudouin d'Aumeries
Assistance for programming : Marc-Olivier Méhu
Technical & hardware support : Manuel Goepfert

Contact : metmap@orbifly.com




SOURCES & CREDITS :

   NOAA       Earth
Advisory